Aegean Viii — SXKO — position and weather

sailwx.info

Track history (hours):
 
Tides and Currents Weather Stations Pressure Air Temp Water Temp Dewpoint Dewpoint Depression Visibility Wind Speed Wind Dir Waves Ship Positions

Aegean Viii

Last reported at 2015-Jul-07 11:11 UTC. Time now 2015-Jul-07 21:56 UTC.
Position N 38°02' E 023°32'.

Length 75 m; draft 4.5 m.

Type: Tanker. MMSI: 240732000.

Date/timePositionNaut miles runAvg speedWind from/ knotsBaromVisibWave heightAir tempDewpointWater temp
2015-Jul-07 11:11N 38°02' E 023°32'0 0.0
2015-Jul-07 10:33N 38°02' E 023°32'0 0.0
2015-Jul-07 09:33N 38°02' E 023°32'0 0.0
2015-Jul-07 08:33N 38°02' E 023°32'0 0.0
2015-Jul-07 07:33N 38°02' E 023°32'3 2.5
2015-Jul-07 06:16N 37°59' E 023°33'5 6.6
2015-Jul-07 05:33N 37°55' E 023°34'3 3.3
2015-Jul-07 04:33N 37°52' E 023°32'0 0.0
2015-Jul-07 03:33N 37°52' E 023°32'0 0.0
2015-Jul-07 02:33N 37°52' E 023°32'0 0.0
2015-Jul-07 01:33N 37°52' E 023°32'0 0.0
2015-Jul-07 00:33N 37°52' E 023°32'0 0.1
2015-Jul-06 23:33N 37°52' E 023°32'0 0.0
2015-Jul-06 22:33N 37°52' E 023°32'0 0.0
2015-Jul-06 21:33N 37°52' E 023°32'0 0.0
2015-Jul-06 20:33N 37°52' E 023°32'0 0.0
2015-Jul-06 19:33N 37°52' E 023°32'3 3.0
2015-Jul-06 18:33N 37°54' E 023°33'7 7.1
2015-Jul-06 17:33N 38°01' E 023°35'1 0.5
2015-Jul-06 16:33N 38°02' E 023°36'0 0.0
2015-Jul-06 15:31N 38°02' E 023°36'0 0.0
2015-Jul-06 14:33N 38°02' E 023°36'0 0.0
2015-Jul-06 13:32N 38°02' E 023°36'0 0.0
2015-Jul-06 12:33N 38°02' E 023°36'0 0.0
2015-Jul-06 11:33N 38°02' E 023°36'0 0.0
2015-Jul-06 10:33N 38°02' E 023°36'0 0.0
2015-Jul-06 09:32N 38°02' E 023°36'1 0.7
2015-Jul-06 08:31N 38°02' E 023°35'0 0.0
2015-Jul-06 07:33N 38°02' E 023°35'0 0.0
2015-Jul-06 06:33N 38°02' E 023°35'0 0.1
2015-Jul-06 05:33N 38°02' E 023°35'2 2.2
2015-Jul-06 04:33N 38°02' E 023°32'0 0.1
2015-Jul-06 03:32N 38°02' E 023°32'0 0.4
2015-Jul-06 02:33N 38°02' E 023°31'0 0.0
2015-Jul-06 01:31N 38°02' E 023°32'0 0.0
2015-Jul-06 00:30N 38°02' E 023°32'2 2.5
2015-Jul-05 23:33N 38°01' E 023°29'8 8.1
2015-Jul-05 22:33N 37°57' E 023°20'36 7.1
2015-Jul-05 17:32N 38°07' E 022°37'  
2015-Jul-01 19:33N 37°57' E 023°22'8 7.6
2015-Jul-01 18:32N 38°02' E 023°30'1 1.5
2015-Jul-01 17:33N 38°02' E 023°32'0 0.0
2015-Jul-01 13:33N 38°02' E 023°32'0 0.0
2015-Jul-01 12:33N 38°02' E 023°32'2 2.1
2015-Jul-01 11:32N 38°02' E 023°35'1 0.7
2015-Jul-01 10:26N 38°02' E 023°36'0 0.0
2015-Jul-01 09:33N 38°02' E 023°36'0 0.0
2015-Jul-01 08:33N 38°02' E 023°36'0 0.0
2015-Jul-01 07:32N 38°02' E 023°36'0 0.0
2015-Jul-01 04:33N 38°02' E 023°36'4 3.8
2015-Jul-01 03:33N 38°02' E 023°31'0 0.1
2015-Jul-01 02:33N 38°02' E 023°31'0 0.0
2015-Jul-01 01:34N 38°02' E 023°31'0 0.0
2015-Jul-01 00:34N 38°02' E 023°31'0 0.0
2015-Jun-30 23:33N 38°02' E 023°31'0 0.0
2015-Jun-30 22:33N 38°02' E 023°31'0 0.0
2015-Jun-30 21:33N 38°02' E 023°31'0 0.0
2015-Jun-30 20:33N 38°02' E 023°31'0 0.0
2015-Jun-30 19:34N 38°02' E 023°31'0 0.0
2015-Jun-30 18:33N 38°02' E 023°31'0 0.4
2015-Jun-30 17:33N 38°02' E 023°31'0 0.3
2015-Jun-30 16:34N 38°02' E 023°31'3 2.5
2015-Jun-30 15:34N 37°59' E 023°33'5 5.2
2015-Jun-30 14:33N 37°56' E 023°38'0 0.0
2015-Jun-30 13:33N 37°56' E 023°38'0 0.0
2015-Jun-30 12:33N 37°56' E 023°38'0 0.0
2015-Jun-30 11:33N 37°56' E 023°38'0 0.0
2015-Jun-30 10:33N 37°56' E 023°38'1 0.8
2015-Jun-30 09:33N 37°56' E 023°37'7 6.7
2015-Jun-30 08:33N 38°02' E 023°32'1 0.6
2015-Jun-30 07:33N 38°02' E 023°32'0 0.0
2015-Jun-30 06:33N 38°02' E 023°32'0 0.0
2015-Jun-29 11:33N 38°02' E 023°32'0 0.0
2015-Jun-29 10:33N 38°02' E 023°32'0 0.0
2015-Jun-29 09:33N 38°02' E 023°32'0 0.0
2015-Jun-29 08:33N 38°02' E 023°32'0 0.0
2015-Jun-29 07:33N 38°02' E 023°32'0 0.0
2015-Jun-29 06:33N 38°02' E 023°32'0 0.0
2015-Jun-27 17:33N 38°02' E 023°32'2 1.8
2015-Jun-27 16:33N 38°00' E 023°33'4 4.2
2015-Jun-27 15:33N 37°57' E 023°36'0 0.2
2015-Jun-27 14:33N 37°57' E 023°36'0 0.0
2015-Jun-27 13:33N 37°57' E 023°36'0 0.0
2015-Jun-27 12:33N 37°57' E 023°36'2 2.2
2015-Jun-27 11:33N 37°57' E 023°33'  
Track history (hours):
 
Tides and Currents Weather Stations Pressure Air Temp Water Temp Dewpoint Dewpoint Depression Visibility Wind Speed Wind Dir Waves Ship Positions

Aegean Viii

Last reported at 2015-Jul-07 11:11 UTC. Time now 2015-Jul-07 21:56 UTC.
Position N 38°02' E 023°32'.

Length 75 m; draft 4.5 m.

Type: Tanker. MMSI: 240732000.

Date/timePositionNaut miles runAvg speedWind from/ knotsBaromVisibWave heightAir tempDewpointWater temp
2015-Jul-07 11:11N 38°02' E 023°32'0 0.0
2015-Jul-07 10:33N 38°02' E 023°32'0 0.0
2015-Jul-07 09:33N 38°02' E 023°32'0 0.0
2015-Jul-07 08:33N 38°02' E 023°32'0 0.0
2015-Jul-07 07:33N 38°02' E 023°32'3 2.5
2015-Jul-07 06:16N 37°59' E 023°33'5 6.6
2015-Jul-07 05:33N 37°55' E 023°34'3 3.3
2015-Jul-07 04:33N 37°52' E 023°32'0 0.0
2015-Jul-07 03:33N 37°52' E 023°32'0 0.0
2015-Jul-07 02:33N 37°52' E 023°32'0 0.0
2015-Jul-07 01:33N 37°52' E 023°32'0 0.0
2015-Jul-07 00:33N 37°52' E 023°32'0 0.1
2015-Jul-06 23:33N 37°52' E 023°32'0 0.0
2015-Jul-06 22:33N 37°52' E 023°32'0 0.0
2015-Jul-06 21:33N 37°52' E 023°32'0 0.0
2015-Jul-06 20:33N 37°52' E 023°32'0 0.0
2015-Jul-06 19:33N 37°52' E 023°32'3 3.0
2015-Jul-06 18:33N 37°54' E 023°33'7 7.1
2015-Jul-06 17:33N 38°01' E 023°35'1 0.5
2015-Jul-06 16:33N 38°02' E 023°36'0 0.0
2015-Jul-06 15:31N 38°02' E 023°36'0 0.0
2015-Jul-06 14:33N 38°02' E 023°36'0 0.0
2015-Jul-06 13:32N 38°02' E 023°36'0 0.0
2015-Jul-06 12:33N 38°02' E 023°36'0 0.0
2015-Jul-06 11:33N 38°02' E 023°36'0 0.0
2015-Jul-06 10:33N 38°02' E 023°36'0 0.0
2015-Jul-06 09:32N 38°02' E 023°36'1 0.7
2015-Jul-06 08:31N 38°02' E 023°35'0 0.0
2015-Jul-06 07:33N 38°02' E 023°35'0 0.0
2015-Jul-06 06:33N 38°02' E 023°35'0 0.1
2015-Jul-06 05:33N 38°02' E 023°35'2 2.2
2015-Jul-06 04:33N 38°02' E 023°32'0 0.1
2015-Jul-06 03:32N 38°02' E 023°32'0 0.4
2015-Jul-06 02:33N 38°02' E 023°31'0 0.0
2015-Jul-06 01:31N 38°02' E 023°32'0 0.0
2015-Jul-06 00:30N 38°02' E 023°32'2 2.5
2015-Jul-05 23:33N 38°01' E 023°29'8 8.1
2015-Jul-05 22:33N 37°57' E 023°20'36 7.1
2015-Jul-05 17:32N 38°07' E 022°37'  
2015-Jul-01 19:33N 37°57' E 023°22'8 7.6
2015-Jul-01 18:32N 38°02' E 023°30'1 1.5
2015-Jul-01 17:33N 38°02' E 023°32'0 0.0
2015-Jul-01 13:33N 38°02' E 023°32'0 0.0
2015-Jul-01 12:33N 38°02' E 023°32'2 2.1
2015-Jul-01 11:32N 38°02' E 023°35'1 0.7
2015-Jul-01 10:26N 38°02' E 023°36'0 0.0
2015-Jul-01 09:33N 38°02' E 023°36'0 0.0
2015-Jul-01 08:33N 38°02' E 023°36'0 0.0
2015-Jul-01 07:32N 38°02' E 023°36'0 0.0
2015-Jul-01 04:33N 38°02' E 023°36'4 3.8
2015-Jul-01 03:33N 38°02' E 023°31'0 0.1
2015-Jul-01 02:33N 38°02' E 023°31'0 0.0
2015-Jul-01 01:34N 38°02' E 023°31'0 0.0
2015-Jul-01 00:34N 38°02' E 023°31'0 0.0
2015-Jun-30 23:33N 38°02' E 023°31'0 0.0
2015-Jun-30 22:33N 38°02' E 023°31'0 0.0
2015-Jun-30 21:33N 38°02' E 023°31'0 0.0
2015-Jun-30 20:33N 38°02' E 023°31'0 0.0
2015-Jun-30 19:34N 38°02' E 023°31'0 0.0
2015-Jun-30 18:33N 38°02' E 023°31'0 0.4
2015-Jun-30 17:33N 38°02' E 023°31'0 0.3
2015-Jun-30 16:34N 38°02' E 023°31'3 2.5
2015-Jun-30 15:34N 37°59' E 023°33'5 5.2
2015-Jun-30 14:33N 37°56' E 023°38'0 0.0
2015-Jun-30 13:33N 37°56' E 023°38'0 0.0
2015-Jun-30 12:33N 37°56' E 023°38'0 0.0
2015-Jun-30 11:33N 37°56' E 023°38'0 0.0
2015-Jun-30 10:33N 37°56' E 023°38'1 0.8
2015-Jun-30 09:33N 37°56' E 023°37'7 6.7
2015-Jun-30 08:33N 38°02' E 023°32'1 0.6
2015-Jun-30 07:33N 38°02' E 023°32'0 0.0
2015-Jun-30 06:33N 38°02' E 023°32'0 0.0
2015-Jun-29 11:33N 38°02' E 023°32'0 0.0
2015-Jun-29 10:33N 38°02' E 023°32'0 0.0
2015-Jun-29 09:33N 38°02' E 023°32'0 0.0
2015-Jun-29 08:33N 38°02' E 023°32'0 0.0
2015-Jun-29 07:33N 38°02' E 023°32'0 0.0
2015-Jun-29 06:33N 38°02' E 023°32'0 0.0
2015-Jun-27 17:33N 38°02' E 023°32'2 1.8
2015-Jun-27 16:33N 38°00' E 023°33'4 4.2
2015-Jun-27 15:33N 37°57' E 023°36'0 0.2
2015-Jun-27 14:33N 37°57' E 023°36'0 0.0
2015-Jun-27 13:33N 37°57' E 023°36'0 0.0
2015-Jun-27 12:33N 37°57' E 023°36'2 2.2
2015-Jun-27 11:33N 37°57' E 023°33'  

Dump ship's entire track history